sensor_id;sensor_type;location;lat;lon;timestamp;temperature;humidity
33067;DHT22;19428;49.024;8.366;2023-03-26T00:00:41;9.70;99.90
33067;DHT22;19428;49.024;8.366;2023-03-26T00:03:11;9.70;99.90
33067;DHT22;19428;49.024;8.366;2023-03-26T00:05:38;9.70;99.90
33067;DHT22;19428;49.024;8.366;2023-03-26T00:08:05;9.70;99.90
33067;DHT22;19428;49.024;8.366;2023-03-26T00:10:34;9.70;99.90
33067;DHT22;19428;49.024;8.366;2023-03-26T00:13:00;9.70;99.90
33067;DHT22;19428;49.024;8.366;2023-03-26T00:15:26;9.80;99.90
33067;DHT22;19428;49.024;8.366;2023-03-26T00:17:51;9.80;99.90
33067;DHT22;19428;49.024;8.366;2023-03-26T00:20:18;9.80;99.90
33067;DHT22;19428;49.024;8.366;2023-03-26T00:22:44;9.90;99.90
33067;DHT22;19428;49.024;8.366;2023-03-26T00:25:09;9.90;99.90
33067;DHT22;19428;49.024;8.366;2023-03-26T00:27:35;9.80;99.90
33067;DHT22;19428;49.024;8.366;2023-03-26T00:30:01;9.70;99.90
33067;DHT22;19428;49.024;8.366;2023-03-26T00:32:28;9.70;99.90
33067;DHT22;19428;49.024;8.366;2023-03-26T00:34:55;9.70;99.90
33067;DHT22;19428;49.024;8.366;2023-03-26T00:37:22;9.80;99.90
33067;DHT22;19428;49.024;8.366;2023-03-26T00:39:55;9.70;99.90
33067;DHT22;19428;49.024;8.366;2023-03-26T00:42:29;9.80;99.90
33067;DHT22;19428;49.024;8.366;2023-03-26T00:44:54;9.80;99.90
33067;DHT22;19428;49.024;8.366;2023-03-26T00:47:23;9.90;99.90
33067;DHT22;19428;49.024;8.366;2023-03-26T00:49:49;9.90;99.90
33067;DHT22;19428;49.024;8.366;2023-03-26T00:52:15;9.90;99.90
33067;DHT22;19428;49.024;8.366;2023-03-26T00:54:44;9.90;99.90
33067;DHT22;19428;49.024;8.366;2023-03-26T00:57:10;9.90;99.90
33067;DHT22;19428;49.024;8.366;2023-03-26T00:59:40;9.90;99.90
33067;DHT22;19428;49.024;8.366;2023-03-26T01:02:09;9.90;99.90
33067;DHT22;19428;49.024;8.366;2023-03-26T01:04:36;9.90;99.90
33067;DHT22;19428;49.024;8.366;2023-03-26T01:07:16;9.90;99.90
33067;DHT22;19428;49.024;8.366;2023-03-26T01:09:47;9.90;99.90
33067;DHT22;19428;49.024;8.366;2023-03-26T01:12:19;9.90;99.90
33067;DHT22;19428;49.024;8.366;2023-03-26T01:14:50;9.90;99.90
33067;DHT22;19428;49.024;8.366;2023-03-26T01:17:17;9.90;99.90
33067;DHT22;19428;49.024;8.366;2023-03-26T01:19:53;9.90;99.90
33067;DHT22;19428;49.024;8.366;2023-03-26T01:22:26;9.90;99.90
33067;DHT22;19428;49.024;8.366;2023-03-26T01:24:52;9.90;99.90
33067;DHT22;19428;49.024;8.366;2023-03-26T01:27:43;9.90;99.90
33067;DHT22;19428;49.024;8.366;2023-03-26T01:30:22;9.90;99.90
33067;DHT22;19428;49.024;8.366;2023-03-26T01:36:20;9.90;99.90
33067;DHT22;19428;49.024;8.366;2023-03-26T01:41:50;9.90;99.90
33067;DHT22;19428;49.024;8.366;2023-03-26T01:44:38;9.90;99.90
33067;DHT22;19428;49.024;8.366;2023-03-26T01:47:06;9.90;99.90
33067;DHT22;19428;49.024;8.366;2023-03-26T01:49:33;9.90;99.90
33067;DHT22;19428;49.024;8.366;2023-03-26T01:51:59;9.90;99.90
33067;DHT22;19428;49.024;8.366;2023-03-26T01:54:27;9.80;99.90
33067;DHT22;19428;49.024;8.366;2023-03-26T02:00:42;9.90;99.90
33067;DHT22;19428;49.024;8.366;2023-03-26T02:03:27;10.00;99.90
33067;DHT22;19428;49.024;8.366;2023-03-26T02:05:56;9.90;99.90
33067;DHT22;19428;49.024;8.366;2023-03-26T02:08:36;9.90;99.90
33067;DHT22;19428;49.024;8.366;2023-03-26T02:11:06;9.80;99.90
33067;DHT22;19428;49.024;8.366;2023-03-26T02:13:36;9.80;99.90
33067;DHT22;19428;49.024;8.366;2023-03-26T02:16:04;9.70;99.90
33067;DHT22;19428;49.024;8.366;2023-03-26T02:18:30;9.70;99.90
33067;DHT22;19428;49.024;8.366;2023-03-26T02:21:05;9.70;99.90
33067;DHT22;19428;49.024;8.366;2023-03-26T02:23:35;9.70;99.90
33067;DHT22;19428;49.024;8.366;2023-03-26T02:26:07;9.70;99.90
33067;DHT22;19428;49.024;8.366;2023-03-26T02:28:33;9.60;99.90
33067;DHT22;19428;49.024;8.366;2023-03-26T02:30:59;9.60;99.90
33067;DHT22;19428;49.024;8.366;2023-03-26T02:33:27;9.70;99.90
33067;DHT22;19428;49.024;8.366;2023-03-26T02:35:53;9.70;99.90
33067;DHT22;19428;49.024;8.366;2023-03-26T02:38:18;9.60;99.90
33067;DHT22;19428;49.024;8.366;2023-03-26T02:40:45;9.60;99.90
33067;DHT22;19428;49.024;8.366;2023-03-26T02:43:10;9.70;99.90
33067;DHT22;19428;49.024;8.366;2023-03-26T02:45:36;9.60;99.90
33067;DHT22;19428;49.024;8.366;2023-03-26T02:48:02;9.70;99.90
33067;DHT22;19428;49.024;8.366;2023-03-26T02:50:27;9.70;99.90
33067;DHT22;19428;49.024;8.366;2023-03-26T02:52:57;9.70;99.90
33067;DHT22;19428;49.024;8.366;2023-03-26T02:55:22;9.70;99.90
33067;DHT22;19428;49.024;8.366;2023-03-26T02:57:48;9.70;99.90
33067;DHT22;19428;49.024;8.366;2023-03-26T03:00:13;9.70;99.90
33067;DHT22;19428;49.024;8.366;2023-03-26T03:02:39;9.70;99.90
33067;DHT22;19428;49.024;8.366;2023-03-26T03:05:05;9.60;99.90
33067;DHT22;19428;49.024;8.366;2023-03-26T03:07:32;9.70;99.90
33067;DHT22;19428;49.024;8.366;2023-03-26T03:10:02;9.70;99.90
33067;DHT22;19428;49.024;8.366;2023-03-26T03:12:28;9.70;99.90
33067;DHT22;19428;49.024;8.366;2023-03-26T03:14:54;9.80;99.90
33067;DHT22;19428;49.024;8.366;2023-03-26T03:17:19;9.80;99.90
33067;DHT22;19428;49.024;8.366;2023-03-26T03:19:45;9.80;99.90
33067;DHT22;19428;49.024;8.366;2023-03-26T03:22:11;9.80;99.90
33067;DHT22;19428;49.024;8.366;2023-03-26T03:24:36;9.80;99.90
33067;DHT22;19428;49.024;8.366;2023-03-26T03:27:03;9.70;99.90
33067;DHT22;19428;49.024;8.366;2023-03-26T03:29:29;9.70;99.90
33067;DHT22;19428;49.024;8.366;2023-03-26T03:31:56;9.70;99.90
33067;DHT22;19428;49.024;8.366;2023-03-26T03:34:24;9.70;99.90
33067;DHT22;19428;49.024;8.366;2023-03-26T03:36:49;9.60;99.90
33067;DHT22;19428;49.024;8.366;2023-03-26T03:39:15;9.70;99.90
33067;DHT22;19428;49.024;8.366;2023-03-26T03:41:41;9.60;99.90
33067;DHT22;19428;49.024;8.366;2023-03-26T03:44:07;9.60;99.90
33067;DHT22;19428;49.024;8.366;2023-03-26T03:46:32;9.60;99.90
33067;DHT22;19428;49.024;8.366;2023-03-26T03:48:58;9.70;99.90
33067;DHT22;19428;49.024;8.366;2023-03-26T03:51:24;9.60;99.90
33067;DHT22;19428;49.024;8.366;2023-03-26T03:53:49;9.60;99.90
33067;DHT22;19428;49.024;8.366;2023-03-26T03:56:15;9.60;99.90
33067;DHT22;19428;49.024;8.366;2023-03-26T03:58:44;9.50;99.90
33067;DHT22;19428;49.024;8.366;2023-03-26T04:01:11;9.40;99.90
33067;DHT22;19428;49.024;8.366;2023-03-26T04:03:38;9.40;99.90
33067;DHT22;19428;49.024;8.366;2023-03-26T04:06:04;9.30;99.90
33067;DHT22;19428;49.024;8.366;2023-03-26T04:08:31;9.30;99.90
33067;DHT22;19428;49.024;8.366;2023-03-26T04:10:57;9.40;99.90
33067;DHT22;19428;49.024;8.366;2023-03-26T04:13:22;9.30;99.90
33067;DHT22;19428;49.024;8.366;2023-03-26T04:15:48;9.40;99.90
33067;DHT22;19428;49.024;8.366;2023-03-26T04:18:14;9.40;99.90
33067;DHT22;19428;49.024;8.366;2023-03-26T04:20:43;9.40;99.90
33067;DHT22;19428;49.024;8.366;2023-03-26T04:23:16;9.50;99.90
33067;DHT22;19428;49.024;8.366;2023-03-26T04:25:51;9.40;99.90
33067;DHT22;19428;49.024;8.366;2023-03-26T04:28:38;9.40;99.90
33067;DHT22;19428;49.024;8.366;2023-03-26T04:31:08;9.30;99.90
33067;DHT22;19428;49.024;8.366;2023-03-26T04:33:36;9.20;99.90
33067;DHT22;19428;49.024;8.366;2023-03-26T04:36:04;9.20;99.90
33067;DHT22;19428;49.024;8.366;2023-03-26T04:38:39;9.20;99.90
33067;DHT22;19428;49.024;8.366;2023-03-26T04:41:05;9.30;99.90
33067;DHT22;19428;49.024;8.366;2023-03-26T04:43:32;9.20;99.90
33067;DHT22;19428;49.024;8.366;2023-03-26T04:46:00;9.30;99.90
33067;DHT22;19428;49.024;8.366;2023-03-26T04:48:27;9.30;99.90
33067;DHT22;19428;49.024;8.366;2023-03-26T04:50:55;9.30;99.90
33067;DHT22;19428;49.024;8.366;2023-03-26T04:53:21;9.20;99.90
33067;DHT22;19428;49.024;8.366;2023-03-26T04:55:54;9.20;99.90
33067;DHT22;19428;49.024;8.366;2023-03-26T04:58:21;9.20;99.90
33067;DHT22;19428;49.024;8.366;2023-03-26T05:00:58;9.30;99.90
33067;DHT22;19428;49.024;8.366;2023-03-26T05:03:26;9.20;99.90
33067;DHT22;19428;49.024;8.366;2023-03-26T05:05:59;9.20;99.90
33067;DHT22;19428;49.024;8.366;2023-03-26T05:08:26;9.10;99.90
33067;DHT22;19428;49.024;8.366;2023-03-26T05:10:54;9.00;99.90
33067;DHT22;19428;49.024;8.366;2023-03-26T05:13:20;9.00;99.90
33067;DHT22;19428;49.024;8.366;2023-03-26T05:15:46;9.10;99.90
33067;DHT22;19428;49.024;8.366;2023-03-26T05:18:12;9.20;99.90
33067;DHT22;19428;49.024;8.366;2023-03-26T05:20:37;9.30;99.90
33067;DHT22;19428;49.024;8.366;2023-03-26T05:23:03;9.10;99.90
33067;DHT22;19428;49.024;8.366;2023-03-26T05:25:28;9.10;99.90
33067;DHT22;19428;49.024;8.366;2023-03-26T05:27:54;9.10;99.90
33067;DHT22;19428;49.024;8.366;2023-03-26T05:30:20;9.10;99.90
33067;DHT22;19428;49.024;8.366;2023-03-26T05:32:47;9.10;99.90
33067;DHT22;19428;49.024;8.366;2023-03-26T05:35:14;9.10;99.90
33067;DHT22;19428;49.024;8.366;2023-03-26T05:37:42;9.10;99.90
33067;DHT22;19428;49.024;8.366;2023-03-26T05:40:09;9.10;99.90
33067;DHT22;19428;49.024;8.366;2023-03-26T05:42:39;9.00;99.90
33067;DHT22;19428;49.024;8.366;2023-03-26T05:45:06;9.10;99.90
33067;DHT22;19428;49.024;8.366;2023-03-26T05:47:32;9.10;99.90
33067;DHT22;19428;49.024;8.366;2023-03-26T05:49:58;9.10;99.90
33067;DHT22;19428;49.024;8.366;2023-03-26T05:52:24;9.10;99.90
33067;DHT22;19428;49.024;8.366;2023-03-26T05:54:50;9.10;99.90
33067;DHT22;19428;49.024;8.366;2023-03-26T05:57:16;9.10;99.90
33067;DHT22;19428;49.024;8.366;2023-03-26T05:59:43;9.10;99.90
33067;DHT22;19428;49.024;8.366;2023-03-26T06:02:09;9.10;99.90
33067;DHT22;19428;49.024;8.366;2023-03-26T06:04:35;9.10;99.90
33067;DHT22;19428;49.024;8.366;2023-03-26T06:07:05;9.10;99.90
33067;DHT22;19428;49.024;8.366;2023-03-26T06:09:35;9.20;99.90
33067;DHT22;19428;49.024;8.366;2023-03-26T06:12:07;9.10;99.90
33067;DHT22;19428;49.024;8.366;2023-03-26T06:14:33;9.10;99.90
33067;DHT22;19428;49.024;8.366;2023-03-26T06:16:59;9.10;99.90
33067;DHT22;19428;49.024;8.366;2023-03-26T06:19:25;9.10;99.90
33067;DHT22;19428;49.024;8.366;2023-03-26T06:21:50;9.10;99.90
33067;DHT22;19428;49.024;8.366;2023-03-26T06:24:16;9.10;99.90
33067;DHT22;19428;49.024;8.366;2023-03-26T06:26:44;9.30;99.90
33067;DHT22;19428;49.024;8.366;2023-03-26T06:29:11;9.30;99.90
33067;DHT22;19428;49.024;8.366;2023-03-26T06:31:37;9.40;99.90
33067;DHT22;19428;49.024;8.366;2023-03-26T06:34:03;9.40;99.90
33067;DHT22;19428;49.024;8.366;2023-03-26T06:36:28;9.40;99.90
33067;DHT22;19428;49.024;8.366;2023-03-26T06:38:54;9.50;99.90
33067;DHT22;19428;49.024;8.366;2023-03-26T06:41:19;9.50;99.90
33067;DHT22;19428;49.024;8.366;2023-03-26T06:43:45;9.50;99.90
33067;DHT22;19428;49.024;8.366;2023-03-26T06:46:11;9.50;99.90
33067;DHT22;19428;49.024;8.366;2023-03-26T06:48:38;9.40;99.90
33067;DHT22;19428;49.024;8.366;2023-03-26T06:51:05;9.40;99.90
33067;DHT22;19428;49.024;8.366;2023-03-26T06:53:30;9.40;99.90
33067;DHT22;19428;49.024;8.366;2023-03-26T06:55:57;9.40;99.90
33067;DHT22;19428;49.024;8.366;2023-03-26T06:58:25;9.50;99.90
33067;DHT22;19428;49.024;8.366;2023-03-26T07:00:55;9.50;99.90
33067;DHT22;19428;49.024;8.366;2023-03-26T07:03:24;9.50;99.90
33067;DHT22;19428;49.024;8.366;2023-03-26T07:05:53;9.60;99.90
33067;DHT22;19428;49.024;8.366;2023-03-26T07:08:18;9.60;99.90
33067;DHT22;19428;49.024;8.366;2023-03-26T07:10:44;9.50;99.90
33067;DHT22;19428;49.024;8.366;2023-03-26T07:13:09;9.50;99.90
33067;DHT22;19428;49.024;8.366;2023-03-26T07:15:39;9.40;99.90
33067;DHT22;19428;49.024;8.366;2023-03-26T07:18:05;9.40;99.90
33067;DHT22;19428;49.024;8.366;2023-03-26T07:20:39;9.40;99.90
33067;DHT22;19428;49.024;8.366;2023-03-26T07:23:18;9.50;99.90
33067;DHT22;19428;49.024;8.366;2023-03-26T07:25:47;9.40;99.90
33067;DHT22;19428;49.024;8.366;2023-03-26T07:35:12;9.30;99.90
33067;DHT22;19428;49.024;8.366;2023-03-26T07:46:45;9.00;99.90
33067;DHT22;19428;49.024;8.366;2023-03-26T08:44:34;9.10;99.90
33067;DHT22;19428;49.024;8.366;2023-03-26T08:55:58;9.70;99.90
33067;DHT22;19428;49.024;8.366;2023-03-26T09:07:47;9.40;99.90
33067;DHT22;19428;49.024;8.366;2023-03-26T09:10:49;9.50;99.90
33067;DHT22;19428;49.024;8.366;2023-03-26T09:22:47;9.70;99.90
33067;DHT22;19428;49.024;8.366;2023-03-26T09:25:40;9.90;99.90
33067;DHT22;19428;49.024;8.366;2023-03-26T09:28:35;10.00;99.90
33067;DHT22;19428;49.024;8.366;2023-03-26T09:34:31;10.30;99.90
33067;DHT22;19428;49.024;8.366;2023-03-26T09:37:27;10.30;99.90
33067;DHT22;19428;49.024;8.366;2023-03-26T09:40:16;10.60;99.90
33067;DHT22;19428;49.024;8.366;2023-03-26T09:54:00;10.40;99.90
33067;DHT22;19428;49.024;8.366;2023-03-26T09:57:06;10.70;99.90
33067;DHT22;19428;49.024;8.366;2023-03-26T09:59:46;10.70;99.90
33067;DHT22;19428;49.024;8.366;2023-03-26T10:26:04;12.40;99.90
33067;DHT22;19428;49.024;8.366;2023-03-26T10:46:02;13.40;97.40
33067;DHT22;19428;49.024;8.366;2023-03-26T10:48:54;13.50;90.80
33067;DHT22;19428;49.024;8.366;2023-03-26T10:51:49;13.40;90.80
33067;DHT22;19428;49.024;8.366;2023-03-26T10:59:56;13.70;71.80
33067;DHT22;19428;49.024;8.366;2023-03-26T11:02:43;13.80;71.20
33067;DHT22;19428;49.024;8.366;2023-03-26T11:08:14;13.80;63.50
33067;DHT22;19428;49.024;8.366;2023-03-26T11:19:30;13.60;50.60
33067;DHT22;19428;49.024;8.366;2023-03-26T11:33:41;14.10;56.30
33067;DHT22;19428;49.024;8.366;2023-03-26T11:36:11;13.90;53.00
33067;DHT22;19428;49.024;8.366;2023-03-26T11:38:43;14.00;51.50
33067;DHT22;19428;49.024;8.366;2023-03-26T11:41:21;14.00;50.30
33067;DHT22;19428;49.024;8.366;2023-03-26T11:44:02;14.10;49.10
33067;DHT22;19428;49.024;8.366;2023-03-26T11:46:31;14.10;46.80
33067;DHT22;19428;49.024;8.366;2023-03-26T11:49:02;14.20;47.40
33067;DHT22;19428;49.024;8.366;2023-03-26T11:51:33;14.00;48.00
33067;DHT22;19428;49.024;8.366;2023-03-26T11:54:04;14.30;48.70
33067;DHT22;19428;49.024;8.366;2023-03-26T11:59:05;13.90;47.50
33067;DHT22;19428;49.024;8.366;2023-03-26T12:04:35;14.30;51.50
33067;DHT22;19428;49.024;8.366;2023-03-26T12:07:22;14.10;52.10
33067;DHT22;19428;49.024;8.366;2023-03-26T12:10:00;13.90;51.00
33067;DHT22;19428;49.024;8.366;2023-03-26T12:12:30;13.90;51.50
33067;DHT22;19428;49.024;8.366;2023-03-26T12:14:57;13.80;51.70
33067;DHT22;19428;49.024;8.366;2023-03-26T12:17:29;13.90;50.20
33067;DHT22;19428;49.024;8.366;2023-03-26T12:19:55;14.00;48.70
33067;DHT22;19428;49.024;8.366;2023-03-26T12:22:35;14.00;49.40
33067;DHT22;19428;49.024;8.366;2023-03-26T12:25:14;14.00;48.60
33067;DHT22;19428;49.024;8.366;2023-03-26T12:27:47;14.20;51.00
33067;DHT22;19428;49.024;8.366;2023-03-26T12:30:25;14.40;46.30
33067;DHT22;19428;49.024;8.366;2023-03-26T12:32:54;14.70;50.00
33067;DHT22;19428;49.024;8.366;2023-03-26T12:35:28;14.40;46.10
33067;DHT22;19428;49.024;8.366;2023-03-26T12:38:33;14.70;47.70
33067;DHT22;19428;49.024;8.366;2023-03-26T12:41:09;15.00;46.60
33067;DHT22;19428;49.024;8.366;2023-03-26T12:43:52;15.00;44.20
33067;DHT22;19428;49.024;8.366;2023-03-26T12:46:32;15.00;45.60
33067;DHT22;19428;49.024;8.366;2023-03-26T12:49:01;15.10;42.00
33067;DHT22;19428;49.024;8.366;2023-03-26T12:52:01;15.00;42.40
33067;DHT22;19428;49.024;8.366;2023-03-26T12:54:38;15.60;41.50
33067;DHT22;19428;49.024;8.366;2023-03-26T12:57:26;15.90;43.40
33067;DHT22;19428;49.024;8.366;2023-03-26T13:00:20;15.10;42.50
33067;DHT22;19428;49.024;8.366;2023-03-26T13:02:59;15.20;41.50
33067;DHT22;19428;49.024;8.366;2023-03-26T13:11:33;14.80;43.10
33067;DHT22;19428;49.024;8.366;2023-03-26T13:16:39;14.90;41.90
33067;DHT22;19428;49.024;8.366;2023-03-26T13:19:25;14.80;43.80
33067;DHT22;19428;49.024;8.366;2023-03-26T13:22:09;15.00;44.40
33067;DHT22;19428;49.024;8.366;2023-03-26T13:30:19;14.40;43.10
33067;DHT22;19428;49.024;8.366;2023-03-26T13:32:59;14.30;43.30
33067;DHT22;19428;49.024;8.366;2023-03-26T13:46:46;13.70;43.40
33067;DHT22;19428;49.024;8.366;2023-03-26T13:49:26;13.50;43.50
33067;DHT22;19428;49.024;8.366;2023-03-26T13:52:15;13.40;45.30
33067;DHT22;19428;49.024;8.366;2023-03-26T13:54:48;13.40;48.40
33067;DHT22;19428;49.024;8.366;2023-03-26T13:57:29;12.90;48.30
33067;DHT22;19428;49.024;8.366;2023-03-26T14:00:04;12.70;49.20
33067;DHT22;19428;49.024;8.366;2023-03-26T14:02:52;12.40;49.50
33067;DHT22;19428;49.024;8.366;2023-03-26T14:05:25;11.90;58.60
33067;DHT22;19428;49.024;8.366;2023-03-26T14:07:58;11.60;66.90
33067;DHT22;19428;49.024;8.366;2023-03-26T14:10:28;11.10;76.30
33067;DHT22;19428;49.024;8.366;2023-03-26T14:13:03;10.50;91.30
33067;DHT22;19428;49.024;8.366;2023-03-26T14:15:39;10.30;99.90
33067;DHT22;19428;49.024;8.366;2023-03-26T14:20:54;9.80;99.90
33067;DHT22;19428;49.024;8.366;2023-03-26T14:32:48;8.80;99.90
33067;DHT22;19428;49.024;8.366;2023-03-26T14:43:21;8.50;99.90
33067;DHT22;19428;49.024;8.366;2023-03-26T14:46:24;8.50;99.90
33067;DHT22;19428;49.024;8.366;2023-03-26T14:53:58;8.70;99.90
33067;DHT22;19428;49.024;8.366;2023-03-26T14:59:33;8.70;99.90
33067;DHT22;19428;49.024;8.366;2023-03-26T15:11:14;8.60;99.90
33067;DHT22;19428;49.024;8.366;2023-03-26T15:22:43;8.50;99.90
33067;DHT22;19428;49.024;8.366;2023-03-26T15:25:42;8.60;99.90
33067;DHT22;19428;49.024;8.366;2023-03-26T15:29:19;8.50;99.90
33067;DHT22;19428;49.024;8.366;2023-03-26T15:37:15;8.50;99.90
33067;DHT22;19428;49.024;8.366;2023-03-26T15:45:36;8.50;99.90
33067;DHT22;19428;49.024;8.366;2023-03-26T15:48:10;8.60;99.90
33067;DHT22;19428;49.024;8.366;2023-03-26T15:50:52;8.60;99.90
33067;DHT22;19428;49.024;8.366;2023-03-26T15:53:33;8.70;99.90
33067;DHT22;19428;49.024;8.366;2023-03-26T15:56:18;8.60;99.90
33067;DHT22;19428;49.024;8.366;2023-03-26T15:58:56;8.60;99.90
33067;DHT22;19428;49.024;8.366;2023-03-26T16:04:37;8.80;99.90
33067;DHT22;19428;49.024;8.366;2023-03-26T16:12:44;8.60;99.90
33067;DHT22;19428;49.024;8.366;2023-03-26T16:15:28;8.50;99.90
33067;DHT22;19428;49.024;8.366;2023-03-26T16:25:59;8.60;99.90
33067;DHT22;19428;49.024;8.366;2023-03-26T16:38:59;8.60;99.90
33067;DHT22;19428;49.024;8.366;2023-03-26T16:44:30;8.60;99.90
33067;DHT22;19428;49.024;8.366;2023-03-26T16:55:59;8.80;99.90
33067;DHT22;19428;49.024;8.366;2023-03-26T16:58:44;8.70;99.90
33067;DHT22;19428;49.024;8.366;2023-03-26T17:01:27;8.80;99.90
33067;DHT22;19428;49.024;8.366;2023-03-26T17:03:58;8.70;99.90
33067;DHT22;19428;49.024;8.366;2023-03-26T17:06:27;8.80;99.90
33067;DHT22;19428;49.024;8.366;2023-03-26T17:09:04;8.80;99.90
33067;DHT22;19428;49.024;8.366;2023-03-26T17:17:25;8.90;99.90
33067;DHT22;19428;49.024;8.366;2023-03-26T17:22:50;8.90;99.90
33067;DHT22;19428;49.024;8.366;2023-03-26T17:25:31;8.90;99.90
33067;DHT22;19428;49.024;8.366;2023-03-26T17:35:50;8.80;99.90
33067;DHT22;19428;49.024;8.366;2023-03-26T17:41:02;8.80;99.90
33067;DHT22;19428;49.024;8.366;2023-03-26T17:43:47;8.80;99.90
33067;DHT22;19428;49.024;8.366;2023-03-26T17:46:38;8.70;99.90
33067;DHT22;19428;49.024;8.366;2023-03-26T17:54:26;8.60;99.90
33067;DHT22;19428;49.024;8.366;2023-03-26T17:56:54;8.60;99.90
33067;DHT22;19428;49.024;8.366;2023-03-26T17:59:23;8.60;99.90
33067;DHT22;19428;49.024;8.366;2023-03-26T18:01:56;8.60;99.90
33067;DHT22;19428;49.024;8.366;2023-03-26T18:04:30;8.60;99.90
33067;DHT22;19428;49.024;8.366;2023-03-26T18:07:01;8.60;99.90
33067;DHT22;19428;49.024;8.366;2023-03-26T18:18:16;8.50;99.90
33067;DHT22;19428;49.024;8.366;2023-03-26T18:20:45;8.50;99.90
33067;DHT22;19428;49.024;8.366;2023-03-26T18:23:25;8.50;99.90
33067;DHT22;19428;49.024;8.366;2023-03-26T18:26:15;8.50;99.90
33067;DHT22;19428;49.024;8.366;2023-03-26T18:29:10;8.50;99.90
33067;DHT22;19428;49.024;8.366;2023-03-26T18:31:40;8.50;99.90
33067;DHT22;19428;49.024;8.366;2023-03-26T18:34:13;8.50;99.90
33067;DHT22;19428;49.024;8.366;2023-03-26T18:36:39;8.40;99.90
33067;DHT22;19428;49.024;8.366;2023-03-26T18:39:11;8.30;99.90
33067;DHT22;19428;49.024;8.366;2023-03-26T18:41:38;8.30;99.90
33067;DHT22;19428;49.024;8.366;2023-03-26T18:44:13;8.30;99.90
33067;DHT22;19428;49.024;8.366;2023-03-26T18:46:39;8.20;99.90
33067;DHT22;19428;49.024;8.366;2023-03-26T18:49:05;8.20;99.90
33067;DHT22;19428;49.024;8.366;2023-03-26T18:51:32;8.20;99.90
33067;DHT22;19428;49.024;8.366;2023-03-26T18:53:59;8.10;99.90
33067;DHT22;19428;49.024;8.366;2023-03-26T18:56:35;8.00;99.90
33067;DHT22;19428;49.024;8.366;2023-03-26T18:59:04;8.00;99.90
33067;DHT22;19428;49.024;8.366;2023-03-26T19:01:33;7.90;99.90
33067;DHT22;19428;49.024;8.366;2023-03-26T19:04:03;7.90;99.90
33067;DHT22;19428;49.024;8.366;2023-03-26T19:06:31;7.90;99.90
33067;DHT22;19428;49.024;8.366;2023-03-26T19:09:02;7.90;99.90
33067;DHT22;19428;49.024;8.366;2023-03-26T19:11:30;7.90;99.90
33067;DHT22;19428;49.024;8.366;2023-03-26T19:14:06;7.90;99.90
33067;DHT22;19428;49.024;8.366;2023-03-26T19:16:33;7.90;99.90
33067;DHT22;19428;49.024;8.366;2023-03-26T19:19:05;7.80;99.90
33067;DHT22;19428;49.024;8.366;2023-03-26T19:21:33;7.80;99.90
33067;DHT22;19428;49.024;8.366;2023-03-26T19:24:00;7.80;99.90
33067;DHT22;19428;49.024;8.366;2023-03-26T19:26:28;7.70;99.90
33067;DHT22;19428;49.024;8.366;2023-03-26T19:28:54;7.70;99.90
33067;DHT22;19428;49.024;8.366;2023-03-26T19:34:46;7.70;99.90
33067;DHT22;19428;49.024;8.366;2023-03-26T19:39:40;7.60;99.90
33067;DHT22;19428;49.024;8.366;2023-03-26T19:42:32;7.60;99.90
33067;DHT22;19428;49.024;8.366;2023-03-26T19:44:58;7.60;99.90
33067;DHT22;19428;49.024;8.366;2023-03-26T19:47:41;7.60;99.90
33067;DHT22;19428;49.024;8.366;2023-03-26T19:52:48;7.60;99.90
33067;DHT22;19428;49.024;8.366;2023-03-26T19:55:28;7.60;99.90
33067;DHT22;19428;49.024;8.366;2023-03-26T19:57:53;7.70;99.90
33067;DHT22;19428;49.024;8.366;2023-03-26T20:00:19;7.70;99.90
33067;DHT22;19428;49.024;8.366;2023-03-26T20:02:46;7.70;99.90
33067;DHT22;19428;49.024;8.366;2023-03-26T20:05:21;7.60;99.90
33067;DHT22;19428;49.024;8.366;2023-03-26T20:07:55;7.70;99.90
33067;DHT22;19428;49.024;8.366;2023-03-26T20:10:21;7.70;99.90
33067;DHT22;19428;49.024;8.366;2023-03-26T20:12:47;7.70;99.90
33067;DHT22;19428;49.024;8.366;2023-03-26T20:15:25;7.70;99.90
33067;DHT22;19428;49.024;8.366;2023-03-26T20:17:52;7.70;99.90
33067;DHT22;19428;49.024;8.366;2023-03-26T20:20:22;7.70;99.90
33067;DHT22;19428;49.024;8.366;2023-03-26T20:22:52;7.70;99.90
33067;DHT22;19428;49.024;8.366;2023-03-26T20:25:25;7.70;99.90
33067;DHT22;19428;49.024;8.366;2023-03-26T20:27:55;7.70;99.90
33067;DHT22;19428;49.024;8.366;2023-03-26T20:30:22;7.70;99.90
33067;DHT22;19428;49.024;8.366;2023-03-26T20:32:49;7.70;99.90
33067;DHT22;19428;49.024;8.366;2023-03-26T20:35:18;7.70;99.90
33067;DHT22;19428;49.024;8.366;2023-03-26T20:37:46;7.70;99.90
33067;DHT22;19428;49.024;8.366;2023-03-26T20:40:12;7.60;99.90
33067;DHT22;19428;49.024;8.366;2023-03-26T20:42:39;7.70;99.90
33067;DHT22;19428;49.024;8.366;2023-03-26T20:45:17;7.70;99.90
33067;DHT22;19428;49.024;8.366;2023-03-26T20:47:47;7.60;99.90
33067;DHT22;19428;49.024;8.366;2023-03-26T20:50:18;7.70;99.90
33067;DHT22;19428;49.024;8.366;2023-03-26T20:52:46;7.60;99.90
33067;DHT22;19428;49.024;8.366;2023-03-26T20:55:13;7.60;99.90
33067;DHT22;19428;49.024;8.366;2023-03-26T20:57:40;7.60;99.90
33067;DHT22;19428;49.024;8.366;2023-03-26T21:00:08;7.60;99.90
33067;DHT22;19428;49.024;8.366;2023-03-26T21:02:45;7.70;99.90
33067;DHT22;19428;49.024;8.366;2023-03-26T22:46:25;7.80;99.90
33067;DHT22;19428;49.024;8.366;2023-03-26T22:48:51;7.90;99.90
33067;DHT22;19428;49.024;8.366;2023-03-26T22:51:17;7.80;99.90
33067;DHT22;19428;49.024;8.366;2023-03-26T22:53:43;7.80;99.90
33067;DHT22;19428;49.024;8.366;2023-03-26T22:56:09;7.80;99.90
33067;DHT22;19428;49.024;8.366;2023-03-26T22:58:36;7.80;99.90
33067;DHT22;19428;49.024;8.366;2023-03-26T23:01:09;7.80;99.90
33067;DHT22;19428;49.024;8.366;2023-03-26T23:03:36;7.80;99.90
33067;DHT22;19428;49.024;8.366;2023-03-26T23:06:04;7.70;99.90
33067;DHT22;19428;49.024;8.366;2023-03-26T23:08:31;7.70;99.90
33067;DHT22;19428;49.024;8.366;2023-03-26T23:10:57;7.60;99.90
33067;DHT22;19428;49.024;8.366;2023-03-26T23:13:23;7.60;99.90
33067;DHT22;19428;49.024;8.366;2023-03-26T23:15:50;7.60;99.90
33067;DHT22;19428;49.024;8.366;2023-03-26T23:18:17;7.70;99.90
33067;DHT22;19428;49.024;8.366;2023-03-26T23:21:13;7.60;99.90
33067;DHT22;19428;49.024;8.366;2023-03-26T23:23:39;7.60;99.90
33067;DHT22;19428;49.024;8.366;2023-03-26T23:26:05;7.60;99.90
33067;DHT22;19428;49.024;8.366;2023-03-26T23:28:33;7.50;99.90
33067;DHT22;19428;49.024;8.366;2023-03-26T23:31:00;7.50;99.90
33067;DHT22;19428;49.024;8.366;2023-03-26T23:33:28;7.40;99.90
33067;DHT22;19428;49.024;8.366;2023-03-26T23:35:55;7.40;99.90
33067;DHT22;19428;49.024;8.366;2023-03-26T23:38:26;7.40;99.90
33067;DHT22;19428;49.024;8.366;2023-03-26T23:40:54;7.40;99.90
33067;DHT22;19428;49.024;8.366;2023-03-26T23:43:19;7.40;99.90
33067;DHT22;19428;49.024;8.366;2023-03-26T23:45:46;7.50;99.90
33067;DHT22;19428;49.024;8.366;2023-03-26T23:48:16;7.50;99.90
33067;DHT22;19428;49.024;8.366;2023-03-26T23:50:50;7.60;99.90
33067;DHT22;19428;49.024;8.366;2023-03-26T23:53:18;7.50;99.90